Time;durP1;ratioP1;P1;durP2;ratioP2;P2;SDS_P1;SDS_P2;PMS_P1;PMS_P2;Temp;Humidity;BMP_temperature;BMP_pressure;BME280_temperature;BME280_humidity;BME280_pressure;Samples;Min_cycle;Max_cycle;Signal;HPM_P1;HPM_P2
2021/05/07 00:02:26;;;;;;;6.10;1.52;;;;;;;18.39;58.01;99733.88;5088834;28;20058;-77
2021/05/07 00:05:32;;;;;;;4.80;1.35;;;;;;;18.44;58.26;99711.53;5094392;28;20047;-76
2021/05/07 00:08:41;;;;;;;4.88;1.40;;;;;;;18.42;58.04;99717.16;5093637;28;20043;-77
2021/05/07 00:11:46;;;;;;;4.85;1.30;;;;;;;18.41;58.42;99712.78;5094441;28;20047;-78
2021/05/07 00:14:51;;;;;;;5.10;1.25;;;;;;;18.41;57.70;99709.22;5093624;28;20580;-77
2021/05/07 00:17:55;;;;;;;5.03;1.10;;;;;;;18.48;57.39;99719.13;5094155;28;20051;-78
2021/05/07 00:21:00;;;;;;;7.35;1.73;;;;;;;18.55;57.19;99706.41;5094359;28;20391;-76
2021/05/07 00:24:05;;;;;;;3.83;1.50;;;;;;;18.56;56.89;99694.50;5092599;28;20055;-77
2021/05/07 00:27:10;;;;;;;6.97;2.08;;;;;;;18.63;56.65;99692.66;5093120;28;20043;-77
2021/05/07 00:30:15;;;;;;;5.47;1.40;;;;;;;18.60;57.11;99682.16;5093960;28;20051;-78
2021/05/07 00:33:19;;;;;;;3.42;1.23;;;;;;;18.60;57.42;99676.72;5094068;28;20051;-76
2021/05/07 00:36:24;;;;;;;5.00;1.30;;;;;;;18.51;57.67;99677.13;5092689;28;20063;-77
2021/05/07 00:39:42;;;;;;;3.55;1.40;;;;;;;18.58;57.56;99661.66;5091375;28;20047;-76
2021/05/07 00:42:47;;;;;;;6.95;1.42;;;;;;;18.59;57.42;99657.91;5091590;28;20066;-77
2021/05/07 00:45:52;;;;;;;7.07;1.65;;;;;;;18.57;57.37;99657.25;5093124;28;20506;-76
2021/05/07 00:48:56;;;;;;;6.47;1.40;;;;;;;18.54;57.42;99654.97;5093684;28;20047;-76
2021/05/07 00:52:03;;;;;;;7.60;1.40;;;;;;;18.53;57.63;99664.16;5091526;28;20485;-77
2021/05/07 00:55:08;;;;;;;4.60;1.30;;;;;;;18.49;57.78;99646.59;5092297;28;20055;-76
2021/05/07 00:58:13;;;;;;;3.83;1.20;;;;;;;18.44;58.05;99655.28;5092995;28;20047;-77
2021/05/07 01:01:18;;;;;;;5.03;1.55;;;;;;;18.39;58.54;99646.09;5089953;28;20122;-76
2021/05/07 01:04:22;;;;;;;4.63;1.50;;;;;;;18.31;58.80;99647.09;5091213;28;20406;-77
2021/05/07 01:07:27;;;;;;;3.53;1.23;;;;;;;18.25;58.72;99644.31;5089950;28;20055;-76
2021/05/07 01:10:32;;;;;;;5.25;1.40;;;;;;;18.29;58.35;99643.75;5092563;28;20059;-77
2021/05/07 01:13:44;;;;;;;4.40;1.38;;;;;;;18.39;57.07;99641.50;5090365;28;20035;-77
2021/05/07 01:16:52;;;;;;;5.18;1.20;;;;;;;18.55;56.82;99637.59;5093087;28;20517;-77
2021/05/07 01:20:07;;;;;;;6.53;1.20;;;;;;;18.44;57.52;99646.31;5092130;28;20122;-76
2021/05/07 01:23:12;;;;;;;4.05;1.40;;;;;;;18.44;57.36;99630.81;5092757;28;20055;-77
2021/05/07 01:26:17;;;;;;;4.25;1.40;;;;;;;18.39;57.11;99621.63;5093042;28;20067;-78
2021/05/07 01:29:22;;;;;;;5.43;1.63;;;;;;;18.33;57.69;99608.84;5090228;28;20051;-78
2021/05/07 01:32:29;;;;;;;5.57;1.08;;;;;;;18.32;57.75;99621.56;5091251;28;20043;-77
2021/05/07 01:35:35;;;;;;;3.10;1.27;;;;;;;18.34;57.78;99618.69;5092043;28;20063;-77
2021/05/07 01:38:40;;;;;;;3.78;1.15;;;;;;;18.23;57.96;99630.94;5089838;28;20047;-77
2021/05/07 01:41:46;;;;;;;3.65;1.25;;;;;;;18.28;58.25;99627.63;5090647;28;20051;-77
2021/05/07 01:44:50;;;;;;;4.15;1.33;;;;;;;18.33;57.96;99641.44;5088604;28;20055;-77
2021/05/07 01:47:56;;;;;;;3.47;1.40;;;;;;;18.37;57.44;99627.25;5092873;28;20067;-76
2021/05/07 01:51:07;;;;;;;5.15;1.65;;;;;;;18.45;57.21;99623.50;5089843;28;20498;-77
2021/05/07 01:54:12;;;;;;;4.32;1.30;;;;;;;18.51;57.05;99622.75;5096185;28;20399;-77
2021/05/07 01:57:17;;;;;;;6.25;1.20;;;;;;;18.49;56.65;99619.41;5096841;28;20122;-76
2021/05/07 02:00:24;;;;;;;4.88;1.48;;;;;;;18.50;57.26;99626.50;5097095;28;20051;-75
2021/05/07 02:03:29;;;;;;;7.38;1.40;;;;;;;18.47;57.17;99622.31;5094262;28;20050;-78
2021/05/07 02:06:37;;;;;;;4.85;1.30;;;;;;;18.47;57.51;99621.47;5090241;28;20055;-77
2021/05/07 02:09:42;;;;;;;5.97;1.02;;;;;;;18.52;56.66;99618.97;5096330;28;20039;-77
2021/05/07 02:12:49;;;;;;;3.33;1.35;;;;;;;18.51;56.87;99645.34;5092731;28;20510;-76
2021/05/07 02:15:53;;;;;;;8.18;2.55;;;;;;;18.10;59.79;99652.59;5093130;28;20055;-77
2021/05/07 02:19:00;;;;;;;5.38;2.45;;;;;;;17.95;60.47;99639.13;5093831;28;20039;-76
2021/05/07 02:22:05;;;;;;;10.82;3.60;;;;;;;17.53;61.88;99640.09;5077181;28;20502;-75
2021/05/07 02:25:11;;;;;;;7.13;3.00;;;;;;;17.24;62.81;99631.25;5092076;28;20047;-77
2021/05/07 02:28:15;;;;;;;5.72;2.80;;;;;;;17.08;63.42;99639.66;5094359;28;20067;-77
2021/05/07 02:31:20;;;;;;;7.28;2.80;;;;;;;17.09;63.31;99654.88;5090028;28;20052;-77
2021/05/07 02:34:24;;;;;;;7.68;3.83;;;;;;;16.87;64.30;99645.91;5095679;28;20047;-76
2021/05/07 02:37:30;;;;;;;7.90;3.80;;;;;;;16.82;64.46;99635.63;5090295;28;20056;-78
2021/05/07 02:40:34;;;;;;;8.38;4.38;;;;;;;16.54;65.61;99634.66;5094840;28;20070;-74
2021/05/07 02:43:39;;;;;;;7.78;3.60;;;;;;;16.52;65.52;99636.75;5088246;28;20051;-76
2021/05/07 02:46:48;;;;;;;11.70;4.47;;;;;;;16.44;65.90;99636.84;5081484;28;20051;-77
2021/05/07 02:49:52;;;;;;;7.30;3.78;;;;;;;16.27;66.47;99641.59;5096710;28;20485;-77
2021/05/07 02:52:57;;;;;;;9.90;3.85;;;;;;;16.21;67.59;99657.78;5083741;28;20066;-77
2021/05/07 02:56:02;;;;;;;11.88;4.82;;;;;;;16.19;67.06;99630.91;5092950;28;20051;-76
2021/05/07 02:59:13;;;;;;;10.40;4.50;;;;;;;15.92;68.55;99644.25;5097900;28;20055;-77
2021/05/07 03:02:18;;;;;;;7.90;3.75;;;;;;;16.01;68.17;99645.81;5085289;28;20059;-76
2021/05/07 03:05:22;;;;;;;7.25;3.67;;;;;;;16.07;68.13;99643.19;5076111;28;20048;-76
2021/05/07 03:08:26;;;;;;;10.63;4.05;;;;;;;16.14;67.68;99655.00;5077113;28;20170;-77
2021/05/07 03:11:31;;;;;;;10.60;5.22;;;;;;;16.09;68.27;99648.44;5084501;28;20146;-76
2021/05/07 03:14:35;;;;;;;8.90;5.10;;;;;;;15.95;68.60;99644.69;5087074;28;20067;-77
2021/05/07 03:17:39;;;;;;;13.10;6.63;;;;;;;15.89;68.31;99640.03;5084934;28;20505;-76
2021/05/07 03:20:45;;;;;;;8.90;4.82;;;;;;;15.85;68.70;99636.00;5092181;28;20067;-77
2021/05/07 03:23:50;;;;;;;10.50;4.90;;;;;;;15.84;69.11;99642.47;5075990;28;20044;-77
2021/05/07 03:26:54;;;;;;;10.63;5.20;;;;;;;15.85;68.86;99625.19;5085553;28;20055;-76
2021/05/07 03:29:59;;;;;;;12.60;4.88;;;;;;;15.84;69.34;99628.94;5075533;28;20048;-76
2021/05/07 03:33:05;;;;;;;7.68;4.50;;;;;;;15.79;68.95;99634.06;5079329;28;20044;-76
2021/05/07 03:36:11;;;;;;;9.20;4.60;;;;;;;15.76;69.70;99637.13;5096892;28;20043;-75
2021/05/07 03:39:18;;;;;;;8.63;4.28;;;;;;;15.75;69.74;99637.31;5084635;28;20098;-77
2021/05/07 03:42:24;;;;;;;8.80;4.43;;;;;;;15.80;69.67;99637.59;5092934;28;20399;-77
2021/05/07 03:45:30;;;;;;;10.25;4.18;;;;;;;15.80;69.95;99643.03;5089680;28;20052;-76
2021/05/07 03:48:37;;;;;;;7.70;4.00;;;;;;;15.74;69.99;99647.31;5087668;28;20690;-76
2021/05/07 03:51:42;;;;;;;8.73;3.60;;;;;;;15.80;69.61;99621.38;5110299;28;20074;-76
2021/05/07 03:54:49;;;;;;;6.70;3.70;;;;;;;15.77;69.99;99622.59;5084782;28;20059;-76
2021/05/07 03:57:56;;;;;;;10.40;2.90;;;;;;;15.90;68.50;99628.16;5088230;28;20063;-77
2021/05/07 04:01:05;;;;;;;3.97;1.67;;;;;;;16.25;66.29;99632.00;5090462;28;20055;-76
2021/05/07 04:04:11;;;;;;;6.38;1.50;;;;;;;16.45;66.23;99632.22;5082076;28;20047;-76
2021/05/07 04:07:16;;;;;;;4.43;1.38;;;;;;;16.56;65.57;99627.22;5086726;28;20052;-75
2021/05/07 04:10:21;;;;;;;7.05;1.60;;;;;;;16.60;66.18;99624.94;5075799;28;20067;-76
2021/05/07 04:13:39;;;;;;;5.80;1.65;;;;;;;16.67;65.66;99631.28;5092903;28;20056;-77
2021/05/07 04:16:43;;;;;;;5.13;1.60;;;;;;;16.75;64.91;99633.88;5090332;28;20055;-76
2021/05/07 04:19:47;;;;;;;9.02;1.55;;;;;;;16.84;65.10;99639.00;5111129;28;20055;-75
2021/05/07 04:22:52;;;;;;;6.97;1.40;;;;;;;16.92;64.83;99641.59;5085558;28;20600;-76
2021/05/07 04:25:56;;;;;;;5.10;1.50;;;;;;;17.01;65.33;99652.31;5082076;28;20050;-76
2021/05/07 04:29:01;;;;;;;6.15;2.50;;;;;;;16.94;65.34;99649.50;5076154;28;20403;-77
2021/05/07 04:32:05;;;;;;;7.57;3.00;;;;;;;16.82;66.06;99665.44;5079538;28;20513;-73
2021/05/07 04:35:10;;;;;;;8.77;3.90;;;;;;;16.56;66.15;99659.72;5073953;28;20075;-73
2021/05/07 04:38:14;;;;;;;5.03;3.65;;;;;;;16.49;66.81;99674.19;5073813;28;20055;-76
2021/05/07 04:41:18;;;;;;;8.57;4.00;;;;;;;16.43;67.53;99669.50;5073605;28;20043;-77
2021/05/07 04:44:23;;;;;;;11.65;4.25;;;;;;;16.35;67.24;99665.03;5073734;28;20052;-76
2021/05/07 04:47:27;;;;;;;10.75;4.40;;;;;;;16.31;67.26;99684.56;5073898;28;20043;-76
2021/05/07 04:50:31;;;;;;;8.07;4.80;;;;;;;16.39;67.34;99688.03;5075144;28;20431;-74
2021/05/07 04:53:36;;;;;;;12.23;5.65;;;;;;;16.25;67.05;99680.72;5094536;28;20039;-77
2021/05/07 04:56:40;;;;;;;8.40;5.25;;;;;;;16.43;66.72;99693.91;5110464;28;20054;-77
2021/05/07 04:59:45;;;;;;;10.35;5.65;;;;;;;17.39;63.90;99706.09;5089768;28;20050;-77
2021/05/07 05:02:49;;;;;;;10.07;5.80;;;;;;;18.49;60.37;99712.63;5096047;28;20066;-77
2021/05/07 05:05:53;;;;;;;11.93;9.77;;;;;;;19.71;56.08;99697.09;5092767;28;20055;-75
2021/05/07 05:08:58;;;;;;;11.73;6.82;;;;;;;20.53;53.86;99700.16;5093403;28;20054;-76
2021/05/07 05:12:02;;;;;;;11.45;5.90;;;;;;;21.37;51.51;99696.22;5093941;28;20047;-78
2021/05/07 05:15:07;;;;;;;14.07;5.78;;;;;;;22.28;49.35;99703.88;5072805;28;20506;-74
2021/05/07 05:18:11;;;;;;;10.18;5.47;;;;;;;22.37;48.43;99688.84;5088724;28;20403;-74
2021/05/07 05:21:15;;;;;;;12.00;5.93;;;;;;;22.87;47.31;99697.75;5093194;28;20051;-77
2021/05/07 05:24:20;;;;;;;10.77;5.57;;;;;;;22.81;47.80;99694.06;5088679;28;20055;-73
2021/05/07 05:27:24;;;;;;;10.80;6.03;;;;;;;22.84;48.04;99679.09;5070501;28;20478;-75
2021/05/07 05:30:29;;;;;;;13.82;6.68;;;;;;;22.06;49.80;99691.69;5072492;28;20071;-74
2021/05/07 05:33:33;;;;;;;14.55;5.85;;;;;;;23.47;47.04;99693.16;5072303;28;20047;-73
2021/05/07 05:36:37;;;;;;;15.77;6.35;;;;;;;24.91;43.53;99699.63;5072281;28;20059;-75
2021/05/07 05:39:42;;;;;;;11.05;5.82;;;;;;;24.98;43.02;99696.78;5068869;28;20382;-74
2021/05/07 05:42:46;;;;;;;10.40;5.40;;;;;;;25.23;43.51;99705.53;5069916;28;20043;-75
2021/05/07 05:45:50;;;;;;;10.63;5.80;;;;;;;25.21;43.30;99697.50;5068742;28;20046;-75
2021/05/07 05:48:55;;;;;;;9.55;5.57;;;;;;;24.65;44.18;99704.81;5069708;28;20048;-76
2021/05/07 05:51:59;;;;;;;11.43;5.63;;;;;;;24.51;45.25;99707.84;5069371;28;20387;-76
2021/05/07 05:55:04;;;;;;;18.15;5.63;;;;;;;25.35;43.59;99709.06;5072738;28;20047;-77
2021/05/07 05:58:09;;;;;;;19.80;6.28;;;;;;;26.15;41.08;99722.59;5072591;28;20059;-76
2021/05/07 06:01:14;;;;;;;15.38;6.22;;;;;;;26.37;41.17;99724.31;5073512;28;20395;-77
2021/05/07 06:04:18;;;;;;;12.98;5.80;;;;;;;25.70;42.64;99730.91;5073483;28;20055;-73
2021/05/07 06:07:22;;;;;;;12.48;6.22;;;;;;;24.54;45.24;99710.06;5073265;28;20051;-76
2021/05/07 06:10:27;;;;;;;13.18;6.30;;;;;;;27.32;39.96;99706.56;5073351;28;20052;-76
2021/05/07 06:13:31;;;;;;;12.88;5.35;;;;;;;29.74;35.72;99708.97;5073567;28;20059;-74
2021/05/07 06:16:35;;;;;;;9.70;5.68;;;;;;;31.35;33.13;99703.16;5072651;28;20056;-77
2021/05/07 06:19:40;;;;;;;8.70;6.03;;;;;;;30.84;33.58;99698.91;5073421;28;20486;-76
2021/05/07 06:22:45;;;;;;;11.63;6.00;;;;;;;30.39;34.02;99704.59;5073290;28;20110;-77
2021/05/07 06:25:49;;;;;;;13.75;5.72;;;;;;;32.60;31.04;99697.72;5073365;28;20490;-77
2021/05/07 06:28:54;;;;;;;18.55;6.10;;;;;;;31.96;31.70;99695.25;5073321;28;20052;-78
2021/05/07 06:31:58;;;;;;;13.52;5.72;;;;;;;32.70;30.51;99689.28;5073253;28;20383;-76
2021/05/07 06:35:04;;;;;;;11.35;4.45;;;;;;;34.17;28.13;99684.44;5073351;28;20115;-77
2021/05/07 06:38:10;;;;;;;11.60;3.85;;;;;;;36.76;24.99;99695.84;5073727;28;20089;-77
2021/05/07 06:41:15;;;;;;;8.45;3.00;;;;;;;37.13;24.34;99689.75;5075665;28;20052;-77
2021/05/07 06:44:19;;;;;;;9.40;3.00;;;;;;;35.70;25.62;99701.38;5076431;28;20051;-76
2021/05/07 06:47:24;;;;;;;4.65;1.70;;;;;;;37.40;24.07;99692.31;5076719;28;20059;-77
2021/05/07 06:50:28;;;;;;;6.20;2.10;;;;;;;37.40;23.95;99694.28;5076558;28;20394;-75
2021/05/07 06:53:33;;;;;;;2.85;1.20;;;;;;;37.09;22.96;99683.97;5076710;28;20498;-75
2021/05/07 06:56:38;;;;;;;3.72;1.60;;;;;;;36.74;24.04;99675.78;5076758;28;20047;-76
2021/05/07 06:59:46;;;;;;;4.63;1.20;;;;;;;36.45;23.26;99682.69;5075942;28;20055;-76
2021/05/07 07:02:50;;;;;;;3.35;1.20;;;;;;;35.86;24.83;99694.28;5076688;28;20064;-76
2021/05/07 07:05:55;;;;;;;5.75;1.13;;;;;;;35.39;24.47;99692.84;5075391;28;20059;-73
2021/05/07 07:08:59;;;;;;;3.83;0.82;;;;;;;34.58;25.85;99693.72;5076240;28;20056;-71
2021/05/07 07:12:04;;;;;;;3.60;1.10;;;;;;;35.09;25.38;99697.13;5076405;28;20051;-76
2021/05/07 07:15:09;;;;;;;3.97;1.13;;;;;;;36.96;23.05;99696.09;5076313;28;20055;-76
2021/05/07 07:18:18;;;;;;;3.25;1.00;;;;;;;37.88;22.10;99694.97;5076322;28;20060;-76
2021/05/07 07:21:22;;;;;;;6.65;1.25;;;;;;;38.02;21.78;99709.66;5075209;28;20052;-76
2021/05/07 07:24:27;;;;;;;4.40;1.20;;;;;;;36.64;22.53;99704.84;5076395;28;20074;-75
2021/05/07 07:27:31;;;;;;;6.40;1.17;;;;;;;37.62;22.08;99702.53;5086272;28;20063;-75
2021/05/07 07:30:35;;;;;;;10.23;1.33;;;;;;;37.10;22.76;99705.22;5086555;28;20051;-76
2021/05/07 07:33:40;;;;;;;3.90;1.05;;;;;;;33.93;24.89;99702.06;5083770;28;20055;-75
2021/05/07 07:36:47;;;;;;;6.13;1.30;;;;;;;31.69;28.23;99705.16;5080861;28;20059;-75
2021/05/07 07:39:52;;;;;;;4.30;1.00;;;;;;;30.41;29.82;99721.75;5079501;28;20043;-74
2021/05/07 07:42:57;;;;;;;6.75;1.35;;;;;;;29.36;30.99;99713.06;5067097;28;20515;-74
2021/05/07 07:46:01;;;;;;;4.88;1.20;;;;;;;32.24;28.36;99721.41;5068919;28;20063;-73
2021/05/07 07:49:05;;;;;;;5.38;1.30;;;;;;;31.98;28.96;99728.28;5054885;28;20408;-75
2021/05/07 07:52:10;;;;;;;5.88;1.40;;;;;;;33.93;26.90;99724.34;5053926;28;20507;-74
2021/05/07 07:55:14;;;;;;;5.25;1.42;;;;;;;33.16;26.97;99736.03;5054828;28;20049;-72
2021/05/07 08:00:48;;;;;;;6.57;1.63;;;;;;;32.00;30.33;99734.38;5054992;28;20040;-73
2021/05/07 08:03:53;;;;;;;5.55;1.70;;;;;;;30.94;31.91;99729.38;5053708;28;20059;-74
2021/05/07 08:07:00;;;;;;;6.65;1.60;;;;;;;29.99;33.03;99733.94;5057435;28;20051;-73
2021/05/07 08:10:05;;;;;;;4.03;1.33;;;;;;;29.73;33.05;99729.44;5065435;28;20399;-74
2021/05/07 08:13:10;;;;;;;4.70;1.45;;;;;;;30.60;30.73;99720.88;5074527;28;20047;-72
2021/05/07 08:16:14;;;;;;;10.27;1.30;;;;;;;32.52;27.66;99722.53;5073663;28;20051;-72
2021/05/07 08:19:18;;;;;;;7.90;1.33;;;;;;;34.24;25.73;99721.91;5074342;28;20067;-74
2021/05/07 08:22:23;;;;;;;4.47;1.08;;;;;;;35.88;23.45;99722.72;5073204;28;20047;-73
2021/05/07 08:25:27;;;;;;;3.95;0.80;;;;;;;33.55;26.02;99727.44;5070367;28;20056;-74
2021/05/07 08:28:31;;;;;;;9.82;1.52;;;;;;;30.63;29.80;99742.50;5061882;28;20052;-71
2021/05/07 08:31:35;;;;;;;8.13;1.30;;;;;;;28.43;32.30;99744.34;5061854;28;20060;-74
2021/05/07 08:34:42;;;;;;;5.97;1.35;;;;;;;27.90;34.61;99736.16;5057970;28;20051;-75
2021/05/07 08:37:46;;;;;;;5.72;1.58;;;;;;;27.73;34.92;99744.53;5073150;28;20514;-74
2021/05/07 08:40:51;;;;;;;7.63;1.40;;;;;;;27.43;35.32;99747.81;5061970;28;20055;-74
2021/05/07 08:43:55;;;;;;;4.05;1.10;;;;;;;27.09;35.89;99746.25;5094092;28;20054;-76
2021/05/07 08:47:01;;;;;;;6.15;1.05;;;;;;;26.85;36.25;99748.44;5093838;28;20047;-74
2021/05/07 08:50:08;;;;;;;6.03;1.35;;;;;;;26.87;36.14;99762.78;5072756;28;20048;-75
2021/05/07 08:53:14;;;;;;;4.05;1.27;;;;;;;27.54;34.97;99746.00;5073418;28;20082;-74
2021/05/07 08:56:19;;;;;;;5.00;1.23;;;;;;;27.90;35.29;99747.19;5073407;28;20052;-72
2021/05/07 08:59:23;;;;;;;8.25;1.85;;;;;;;27.97;34.71;99756.09;5072443;28;20051;-73
2021/05/07 09:02:32;;;;;;;5.80;1.40;;;;;;;27.50;34.44;99755.88;5073101;28;20051;-74
2021/05/07 09:05:37;;;;;;;6.60;1.45;;;;;;;27.19;35.84;99759.34;5075062;28;20055;-76
2021/05/07 09:08:42;;;;;;;7.72;1.70;;;;;;;27.07;36.00;99752.03;5093757;28;20051;-77
2021/05/07 09:11:46;;;;;;;6.05;1.45;;;;;;;26.70;36.80;99758.38;5091748;28;20465;-75
2021/05/07 09:14:50;;;;;;;4.88;1.65;;;;;;;27.02;36.33;99760.25;5093611;28;20391;-73
2021/05/07 09:18:01;;;;;;;8.20;1.95;;;;;;;26.53;36.02;99774.09;5092857;28;20383;-74
2021/05/07 09:21:05;;;;;;;8.23;1.90;;;;;;;26.33;36.48;99769.94;5093327;28;20047;-75
2021/05/07 09:24:09;;;;;;;6.15;1.80;;;;;;;26.23;36.84;99768.94;5093390;28;20051;-74
2021/05/07 09:27:23;;;;;;;6.95;1.73;;;;;;;26.50;36.76;99764.41;5107275;28;20054;-77
2021/05/07 09:30:29;;;;;;;4.40;1.50;;;;;;;26.46;36.52;99746.75;5113374;28;20054;-75
2021/05/07 09:33:40;;;;;;;5.65;1.77;;;;;;;26.55;37.29;99759.00;5112957;28;20046;-74
2021/05/07 09:36:44;;;;;;;8.18;1.90;;;;;;;26.54;36.57;99764.75;5113497;28;20046;-74
2021/05/07 09:39:51;;;;;;;5.47;1.50;;;;;;;26.31;37.33;99766.63;5100638;28;20051;-74
2021/05/07 09:43:10;;;;;;;6.05;1.58;;;;;;;26.10;37.50;99761.81;5092850;28;20043;-74
2021/05/07 09:46:15;;;;;;;5.93;1.45;;;;;;;26.23;38.32;99761.53;5078833;28;20063;-74
2021/05/07 09:49:26;;;;;;;7.50;1.90;;;;;;;26.38;38.37;99758.19;5086878;28;20055;-73
2021/05/07 09:52:31;;;;;;;6.20;1.65;;;;;;;26.46;36.80;99758.59;5072422;28;20059;-73
2021/05/07 09:55:35;;;;;;;6.18;1.67;;;;;;;26.32;36.37;99753.66;5089012;28;20395;-74
2021/05/07 09:58:40;;;;;;;7.82;2.15;;;;;;;25.78;37.80;99752.47;5093153;28;20047;-73
2021/05/07 10:01:46;;;;;;;5.65;1.90;;;;;;;26.03;38.11;99749.31;5092904;28;20395;-75
2021/05/07 10:04:50;;;;;;;7.20;1.80;;;;;;;25.99;38.64;99748.16;5091656;28;20066;-78
2021/05/07 10:07:58;;;;;;;5.45;1.60;;;;;;;26.05;38.70;99744.41;5092175;28;20055;-75
2021/05/07 10:11:02;;;;;;;7.25;1.60;;;;;;;25.79;39.16;99763.22;5092936;28;20493;-75
2021/05/07 10:14:15;;;;;;;7.75;1.20;;;;;;;25.93;39.22;99773.91;5095246;28;20055;-73
2021/05/07 10:17:19;;;;;;;6.17;1.53;;;;;;;26.06;38.09;99749.66;5097121;28;20051;-74
2021/05/07 10:20:30;;;;;;;6.25;1.55;;;;;;;26.15;37.69;99759.19;5095584;28;20051;-77
2021/05/07 10:23:35;;;;;;;7.20;1.65;;;;;;;26.18;37.81;99763.38;5096085;28;20063;-74
2021/05/07 10:26:42;;;;;;;4.72;1.25;;;;;;;25.42;38.46;99761.09;5107479;28;20054;-72
2021/05/07 10:29:58;;;;;;;6.75;1.48;;;;;;;25.82;38.85;99762.72;5117078;28;20406;-76
2021/05/07 10:33:23;;;;;;;10.98;1.77;;;;;;;26.10;38.56;99750.81;5117193;28;20046;-77
2021/05/07 10:36:48;;;;;;;4.65;1.67;;;;;;;25.60;38.38;99756.25;5116777;28;20086;-74
2021/05/07 10:39:59;;;;;;;4.03;1.20;;;;;;;25.57;38.30;99747.69;5116818;28;20101;-72
2021/05/07 10:43:04;;;;;;;13.40;1.60;;;;;;;25.45;38.84;99744.16;5114759;28;20047;-75
2021/05/07 10:46:26;;;;;;;4.18;1.00;;;;;;;25.22;38.47;99742.31;5096138;28;20063;-78
2021/05/07 10:49:34;;;;;;;5.45;1.30;;;;;;;25.31;38.69;99732.59;5096097;28;20051;-73
2021/05/07 10:52:39;;;;;;;6.50;1.17;;;;;;;25.31;39.59;99740.81;5095679;28;20051;-76
2021/05/07 10:55:43;;;;;;;4.13;1.25;;;;;;;25.05;39.38;99739.50;5090797;28;20060;-73
2021/05/07 10:58:50;;;;;;;3.63;1.05;;;;;;;25.25;39.59;99735.50;5076047;28;20055;-74
2021/05/07 11:02:03;;;;;;;5.57;1.20;;;;;;;25.39;39.27;99729.44;5085449;28;20051;-72
2021/05/07 11:05:08;;;;;;;6.32;1.30;;;;;;;25.23;38.67;99734.91;5096231;28;20067;-78
2021/05/07 11:08:13;;;;;;;4.93;1.30;;;;;;;25.09;39.63;99715.09;5095885;28;20398;-78
2021/05/07 11:11:17;;;;;;;5.07;1.40;;;;;;;25.31;39.93;99713.34;5095869;28;20071;-75
2021/05/07 11:14:24;;;;;;;4.38;1.27;;;;;;;25.53;39.40;99717.09;5095895;28;20071;-77
2021/05/07 11:17:28;;;;;;;5.28;1.30;;;;;;;25.51;38.73;99719.25;5095107;28;20051;-74
2021/05/07 11:20:38;;;;;;;5.10;1.20;;;;;;;25.38;38.81;99713.22;5094245;28;20062;-71
2021/05/07 11:23:42;;;;;;;6.72;0.98;;;;;;;24.78;39.94;99699.09;5092883;28;20051;-76
2021/05/07 11:26:47;;;;;;;6.35;1.17;;;;;;;24.69;39.80;99695.84;5087451;28;20040;-79
2021/05/07 11:30:03;;;;;;;6.97;1.33;;;;;;;24.59;39.94;99696.47;5074712;28;20056;-76
2021/05/07 11:33:08;;;;;;;6.32;1.00;;;;;;;24.46;40.06;99685.78;5082174;28;20051;-77
2021/05/07 11:36:14;;;;;;;5.10;1.35;;;;;;;24.26;40.74;99684.47;5094944;28;20425;-77
2021/05/07 11:39:21;;;;;;;3.15;0.90;;;;;;;24.28;41.06;99679.56;5093644;28;20101;-77
2021/05/07 11:42:37;;;;;;;6.30;1.02;;;;;;;24.39;40.58;99686.97;5094728;28;20055;-75
2021/05/07 11:45:41;;;;;;;5.63;0.93;;;;;;;24.37;39.83;99678.13;5094679;28;20055;-77
2021/05/07 11:48:48;;;;;;;6.25;1.20;;;;;;;24.53;39.97;99678.25;5109207;28;20055;-75
2021/05/07 11:51:52;;;;;;;8.68;1.20;;;;;;;24.44;41.22;99681.59;5101775;28;20051;-76
2021/05/07 11:54:56;;;;;;;2.80;0.90;;;;;;;24.52;41.15;99686.69;5094547;28;20059;-77
2021/05/07 11:58:04;;;;;;;5.95;0.98;;;;;;;24.24;41.60;99694.84;5084207;28;20510;-77
2021/05/07 12:00:53;;;;;;;7.50;1.10;;;;;;;24.21;40.78;99679.69;5086369;28;20043;-77
2021/05/07 12:04:01;;;;;;;6.13;1.00;;;;;;;24.40;41.41;99692.22;5093593;28;20055;-78
2021/05/07 12:07:05;;;;;;;6.68;0.90;;;;;;;24.32;41.05;99675.28;5094654;28;20055;-79
2021/05/07 12:10:10;;;;;;;3.55;0.95;;;;;;;24.49;41.50;99687.19;5094415;28;20055;-76
2021/05/07 12:13:22;;;;;;;5.30;1.08;;;;;;;24.65;41.68;99669.97;5094015;28;20062;-72
2021/05/07 12:16:28;;;;;;;6.15;1.02;;;;;;;24.68;42.04;99674.97;5094130;28;20054;-76
2021/05/07 12:19:32;;;;;;;4.38;1.23;;;;;;;24.71;40.87;99677.25;5090358;28;20055;-78
2021/05/07 12:22:37;;;;;;;7.53;1.52;;;;;;;24.61;40.98;99667.97;5085273;28;20091;-79
2021/05/07 12:25:44;;;;;;;5.50;1.27;;;;;;;24.44;40.92;99665.94;5093000;28;20039;-73
2021/05/07 12:28:59;;;;;;;5.38;1.13;;;;;;;24.61;41.17;99671.53;5080633;28;20055;-79
2021/05/07 12:32:04;;;;;;;6.47;1.70;;;;;;;24.76;41.59;99677.34;5093215;28;20043;-73
2021/05/07 12:35:09;;;;;;;6.15;1.30;;;;;;;24.64;40.67;99679.28;5086550;28;20044;-77
2021/05/07 12:38:17;;;;;;;4.35;1.20;;;;;;;24.37;40.77;99675.38;5077711;28;20059;-80
2021/05/07 12:41:24;;;;;;;5.40;1.30;;;;;;;24.53;41.21;99683.72;5073822;28;20407;-81
2021/05/07 12:44:29;;;;;;;5.07;1.35;;;;;;;24.54;41.52;99679.88;5086902;28;20051;-76
2021/05/07 12:47:33;;;;;;;4.80;1.08;;;;;;;24.63;41.21;99694.09;5090844;28;20050;-74
2021/05/07 12:50:38;;;;;;;3.35;1.10;;;;;;;24.64;41.28;99687.50;5091909;28;20043;-75
2021/05/07 12:53:43;;;;;;;7.07;1.13;;;;;;;24.42;41.80;99680.97;5092148;28;20047;-76
2021/05/07 12:56:48;;;;;;;5.65;1.45;;;;;;;24.52;43.10;99682.03;5093933;28;20062;-76
2021/05/07 13:00:00;;;;;;;9.37;1.50;;;;;;;24.46;43.16;99688.50;5090538;28;20055;-78
2021/05/07 13:03:05;;;;;;;8.27;1.58;;;;;;;24.26;44.61;99679.81;5091502;28;20062;-78
2021/05/07 13:06:09;;;;;;;8.82;1.30;;;;;;;24.21;44.17;99681.59;5091427;28;20055;-77
2021/05/07 13:09:13;;;;;;;7.30;1.48;;;;;;;24.28;43.57;99679.56;5091405;28;20062;-76
2021/05/07 13:12:18;;;;;;;6.85;1.50;;;;;;;24.27;43.42;99678.72;5091382;28;20047;-77
2021/05/07 13:15:24;;;;;;;7.13;1.30;;;;;;;24.06;43.68;99682.06;5094055;28;20047;-76
2021/05/07 13:18:28;;;;;;;6.93;1.55;;;;;;;24.05;43.35;99682.31;5093859;28;20058;-78
2021/05/07 13:21:33;;;;;;;5.07;1.33;;;;;;;24.08;43.08;99673.59;5093908;28;20047;-78
2021/05/07 13:24:38;;;;;;;6.72;1.17;;;;;;;24.29;42.06;99679.34;5093764;28;20395;-75
2021/05/07 13:27:43;;;;;;;6.35;1.38;;;;;;;24.19;42.62;99686.50;5093512;28;20063;-76
2021/05/07 13:30:47;;;;;;;10.00;1.50;;;;;;;24.26;42.02;99676.25;5093548;28;20059;-76
2021/05/07 13:33:51;;;;;;;5.20;1.27;;;;;;;24.42;42.38;99680.97;5093224;28;20039;-73
2021/05/07 13:36:55;;;;;;;5.93;1.23;;;;;;;24.42;42.35;99687.31;5093473;28;20055;-73
2021/05/07 13:40:01;;;;;;;6.18;1.60;;;;;;;24.50;41.95;99680.63;5093096;28;20501;-74
2021/05/07 13:43:06;;;;;;;11.43;2.08;;;;;;;24.45;42.11;99675.84;5092596;28;20047;-76
2021/05/07 13:46:10;;;;;;;11.98;1.80;;;;;;;24.49;41.51;99670.72;5092732;28;20047;-77
2021/05/07 13:49:15;;;;;;;6.72;1.55;;;;;;;24.49;40.78;99665.25;5100031;28;20067;-75
2021/05/07 13:52:19;;;;;;;6.30;1.50;;;;;;;24.57;41.42;99670.34;5100487;28;20051;-77
2021/05/07 13:55:24;;;;;;;7.78;1.40;;;;;;;24.68;40.93;99665.91;5100146;28;20051;-76
2021/05/07 13:58:29;;;;;;;6.20;1.50;;;;;;;24.65;41.19;99667.22;5099607;28;20043;-75
2021/05/07 14:01:34;;;;;;;4.57;1.67;;;;;;;24.62;39.96;99659.47;5096745;28;20043;-72
2021/05/07 14:04:39;;;;;;;6.60;1.30;;;;;;;24.56;39.82;99663.19;5098933;28;20494;-76
2021/05/07 14:07:43;;;;;;;11.43;1.40;;;;;;;24.59;40.42;99662.69;5077759;28;20506;-73
2021/05/07 14:10:47;;;;;;;6.75;1.48;;;;;;;24.42;40.07;99665.34;5079326;28;20052;-73
2021/05/07 14:13:52;;;;;;;7.38;1.35;;;;;;;24.49;40.62;99668.00;5089689;28;20052;-75
2021/05/07 14:16:56;;;;;;;8.73;1.75;;;;;;;24.40;40.33;99661.19;5079043;28;20498;-73
2021/05/07 14:20:01;;;;;;;10.90;1.58;;;;;;;24.55;39.80;99656.03;5078800;28;20056;-75
2021/05/07 14:23:07;;;;;;;11.98;1.48;;;;;;;24.46;39.47;99668.47;5079209;28;20051;-74
2021/05/07 14:26:11;;;;;;;7.88;1.58;;;;;;;24.44;39.68;99667.88;5079292;28;20391;-74
2021/05/07 14:29:16;;;;;;;5.70;1.45;;;;;;;24.51;39.94;99672.16;5078948;28;20511;-77
2021/05/07 14:32:21;;;;;;;7.00;1.30;;;;;;;24.59;39.67;99676.41;5090238;28;20110;-74
2021/05/07 14:35:26;;;;;;;7.70;1.45;;;;;;;24.64;39.51;99673.78;5082404;28;20391;-77